Time;durP1;ratioP1;P1;durP2;ratioP2;P2;SDS_P1;SDS_P2;PMS_P1;PMS_P2;Temp;Humidity;BMP_temperature;BMP_pressure;BME280_temperature;BME280_humidity;BME280_pressure;Samples;Min_cycle;Max_cycle;Signal;HPM_P1;HPM_P2
2022/05/13 00:02:17;;;;;;;10.10;8.90;;;16.80;99.90;;;;;;5075665;28;20202;-78
2022/05/13 00:04:45;;;;;;;10.47;8.10;;;16.70;99.90;;;;;;5085686;28;20225;-78
2022/05/13 00:07:13;;;;;;;9.40;8.40;;;16.70;99.90;;;;;;5080228;28;20194;-77
2022/05/13 00:10:00;;;;;;;10.10;9.10;;;16.70;99.90;;;;;;5087409;28;20201;-78
2022/05/13 00:12:30;;;;;;;10.80;8.50;;;16.70;99.90;;;;;;5080976;28;20198;-78
2022/05/13 00:14:58;;;;;;;10.63;8.90;;;16.70;99.90;;;;;;5080045;28;20224;-78
2022/05/13 00:17:25;;;;;;;9.93;8.93;;;16.60;99.90;;;;;;5082021;28;20605;-78
2022/05/13 00:19:53;;;;;;;9.27;8.37;;;16.60;99.90;;;;;;5080548;28;20284;-79
2022/05/13 00:22:21;;;;;;;9.93;8.83;;;16.70;99.90;;;;;;5082277;28;20276;-78
2022/05/13 00:24:48;;;;;;;12.73;9.43;;;16.60;99.90;;;;;;5078975;28;20231;-77
2022/05/13 00:27:15;;;;;;;10.43;9.33;;;16.70;99.90;;;;;;5076406;28;20199;-78
2022/05/13 00:29:42;;;;;;;9.10;8.27;;;16.60;99.90;;;;;;5079481;28;20189;-78
2022/05/13 00:32:09;;;;;;;10.87;8.63;;;16.60;99.90;;;;;;5079946;28;20756;-78
2022/05/13 00:34:36;;;;;;;8.67;7.87;;;16.60;99.90;;;;;;5079638;28;20217;-79
2022/05/13 00:37:04;;;;;;;9.40;8.27;;;16.60;99.90;;;;;;5079998;28;20567;-78
2022/05/13 00:39:32;;;;;;;9.73;8.73;;;16.60;99.90;;;;;;5083601;28;20200;-78
2022/05/13 00:42:07;;;;;;;9.00;8.10;;;16.60;99.90;;;;;;5080911;28;20223;-79
2022/05/13 00:44:34;;;;;;;10.23;9.07;;;16.60;99.90;;;;;;5077469;28;20219;-79
2022/05/13 00:47:02;;;;;;;8.60;7.77;;;16.60;99.90;;;;;;5076778;28;20255;-78
2022/05/13 00:49:32;;;;;;;9.53;8.10;;;16.60;99.90;;;;;;5081065;28;20272;-78
2022/05/13 00:52:00;;;;;;;9.43;8.43;;;16.60;99.90;;;;;;5079668;28;20623;-78
2022/05/13 00:54:28;;;;;;;9.13;8.07;;;16.60;99.90;;;;;;5079849;28;20217;-76
2022/05/13 00:56:58;;;;;;;9.50;8.60;;;16.60;99.90;;;;;;5082252;28;20502;-78
2022/05/13 00:59:28;;;;;;;9.77;8.73;;;16.60;99.90;;;;;;5084882;28;20258;-78
2022/05/13 01:01:56;;;;;;;9.53;8.57;;;16.50;99.90;;;;;;5083273;28;20717;-78
2022/05/13 01:04:24;;;;;;;10.17;9.10;;;16.50;99.90;;;;;;5082669;28;20216;-78
2022/05/13 01:06:56;;;;;;;10.77;9.73;;;16.40;99.90;;;;;;5079383;28;20612;-79
2022/05/13 01:09:28;;;;;;;10.13;9.13;;;16.50;99.90;;;;;;5085126;28;20662;-78
2022/05/13 01:11:59;;;;;;;8.97;8.07;;;16.50;99.90;;;;;;5081639;28;20741;-78
2022/05/13 01:14:29;;;;;;;10.97;9.43;;;16.50;99.90;;;;;;5081948;28;20232;-78
2022/05/13 01:20:07;;;;;;;10.30;9.23;;;16.50;99.90;;;;;;5078721;28;20189;-78
2022/05/13 01:22:43;;;;;;;11.53;8.93;;;16.40;99.90;;;;;;5084153;28;20182;-78
2022/05/13 01:25:12;;;;;;;10.97;8.90;;;16.40;99.90;;;;;;5083028;28;20218;-78
2022/05/13 01:27:42;;;;;;;12.30;9.10;;;16.40;99.90;;;;;;5075319;28;20198;-78
2022/05/13 01:30:10;;;;;;;10.50;9.50;;;16.40;99.90;;;;;;5075218;28;20198;-79
2022/05/13 01:32:37;;;;;;;10.90;9.60;;;16.40;99.90;;;;;;5074289;28;20269;-77
2022/05/13 01:35:05;;;;;;;11.50;9.10;;;16.40;99.90;;;;;;5074600;28;20206;-78
2022/05/13 01:37:33;;;;;;;11.13;10.03;;;16.40;99.90;;;;;;5074672;28;20200;-79
2022/05/13 01:40:02;;;;;;;9.90;8.90;;;16.40;99.90;;;;;;5081236;28;20190;-78
2022/05/13 01:42:29;;;;;;;10.57;9.13;;;16.40;99.90;;;;;;5083239;28;20662;-78
2022/05/13 01:44:57;;;;;;;10.33;9.27;;;16.40;99.90;;;;;;5084684;28;20221;-77
2022/05/13 01:47:25;;;;;;;10.47;9.37;;;16.40;99.90;;;;;;5080899;28;20278;-78
2022/05/13 01:49:52;;;;;;;10.60;9.50;;;16.40;99.90;;;;;;5082204;28;20224;-78
2022/05/13 01:52:19;;;;;;;9.63;8.63;;;16.40;99.90;;;;;;5083454;28;20194;-78
2022/05/13 01:54:46;;;;;;;10.43;9.43;;;16.40;99.90;;;;;;5083282;28;20210;-77
2022/05/13 01:57:15;;;;;;;11.17;9.40;;;16.50;99.90;;;;;;5083452;28;20189;-78
2022/05/13 01:59:42;;;;;;;9.33;8.33;;;16.50;99.90;;;;;;5078682;28;20725;-78
2022/05/13 02:02:09;;;;;;;8.97;8.03;;;16.50;99.90;;;;;;5077542;28;20190;-78
2022/05/13 02:04:35;;;;;;;9.40;8.50;;;16.60;99.90;;;;;;5085574;28;20305;-78
2022/05/13 02:07:02;;;;;;;10.57;9.57;;;16.60;99.90;;;;;;5084045;28;20255;-78
2022/05/13 02:09:29;;;;;;;10.67;9.67;;;16.60;99.90;;;;;;5083570;28;20198;-78
2022/05/13 02:11:56;;;;;;;10.93;9.77;;;16.60;99.90;;;;;;5076524;28;20297;-77
2022/05/13 02:14:24;;;;;;;8.60;7.80;;;16.60;99.90;;;;;;5085316;28;20221;-78
2022/05/13 02:16:51;;;;;;;8.90;8.10;;;16.60;99.90;;;;;;5080429;28;20258;-77
2022/05/13 02:19:18;;;;;;;8.23;7.43;;;16.60;99.90;;;;;;5079319;28;20205;-79
2022/05/13 02:21:45;;;;;;;9.57;8.67;;;16.60;99.90;;;;;;5081772;28;20226;-77
2022/05/13 02:24:12;;;;;;;7.30;6.60;;;16.60;99.90;;;;;;5080805;28;20651;-79
2022/05/13 02:26:39;;;;;;;9.83;8.93;;;16.60;99.90;;;;;;5082174;28;20187;-78
2022/05/13 02:29:06;;;;;;;9.03;8.20;;;16.50;99.90;;;;;;5081940;28;20197;-78
2022/05/13 02:31:35;;;;;;;8.50;7.60;;;16.60;99.90;;;;;;5082995;28;20671;-78
2022/05/13 02:34:02;;;;;;;9.27;8.37;;;16.60;99.90;;;;;;5084533;28;20193;-78
2022/05/13 02:36:29;;;;;;;10.77;8.57;;;16.50;99.90;;;;;;5074708;28;20202;-78
2022/05/13 02:38:56;;;;;;;10.47;9.17;;;16.50;99.90;;;;;;5081785;28;20197;-78
2022/05/13 02:41:23;;;;;;;9.50;8.50;;;16.50;99.90;;;;;;5083115;28;20277;-78
2022/05/13 02:43:53;;;;;;;9.83;8.17;;;16.50;99.90;;;;;;5075125;28;20723;-77
2022/05/13 02:46:24;;;;;;;8.73;7.93;;;16.50;99.90;;;;;;5076574;28;20210;-79
2022/05/13 02:48:52;;;;;;;8.93;8.10;;;16.50;99.90;;;;;;5090716;28;20635;-78
2022/05/13 02:51:20;;;;;;;10.67;8.53;;;16.50;99.90;;;;;;5082524;28;20212;-79
2022/05/13 02:53:47;;;;;;;8.97;8.07;;;16.50;99.90;;;;;;5082960;28;20200;-78
2022/05/13 02:56:15;;;;;;;9.23;8.33;;;16.50;99.90;;;;;;5066472;28;20616;-78
2022/05/13 02:58:42;;;;;;;9.87;8.87;;;16.50;99.90;;;;;;5074681;28;20209;-77
2022/05/13 03:01:12;;;;;;;8.57;7.77;;;16.50;99.90;;;;;;5082106;28;20200;-78
2022/05/13 03:03:40;;;;;;;10.20;9.20;;;16.50;99.90;;;;;;5070086;28;20273;-78
2022/05/13 03:06:09;;;;;;;9.30;8.40;;;16.50;99.90;;;;;;5078062;28;20901;-78
2022/05/13 03:08:36;;;;;;;9.20;7.90;;;16.40;99.90;;;;;;5080724;28;20734;-78
2022/05/13 03:11:04;;;;;;;10.23;9.30;;;16.40;99.90;;;;;;5065262;28;20205;-80
2022/05/13 03:13:31;;;;;;;8.67;7.87;;;16.40;99.90;;;;;;5071448;28;20277;-78
2022/05/13 03:16:03;;;;;;;9.60;8.60;;;16.40;99.90;;;;;;5069426;28;20212;-78
2022/05/13 03:18:30;;;;;;;10.20;9.10;;;16.40;99.90;;;;;;5072195;28;20282;-79
2022/05/13 03:20:57;;;;;;;10.57;9.47;;;16.50;99.90;;;;;;5071465;28;20228;-79
2022/05/13 03:23:25;;;;;;;10.57;9.57;;;16.40;99.90;;;;;;5072889;28;20273;-78
2022/05/13 03:25:52;;;;;;;10.30;9.30;;;16.40;99.90;;;;;;5073693;28;20220;-78
2022/05/13 03:28:19;;;;;;;10.73;9.73;;;16.40;99.90;;;;;;5081693;28;20224;-78
2022/05/13 03:30:46;;;;;;;11.43;10.33;;;16.40;99.90;;;;;;5082559;28;20198;-78
2022/05/13 03:33:13;;;;;;;10.50;9.40;;;16.40;99.90;;;;;;5082562;28;20678;-78
2022/05/13 03:35:40;;;;;;;9.87;8.97;;;16.40;99.90;;;;;;5080280;28;20241;-78
2022/05/13 03:38:07;;;;;;;10.53;9.53;;;16.30;99.90;;;;;;5084760;28;20574;-78
2022/05/13 03:43:19;;;;;;;10.57;9.47;;;16.40;99.90;;;;;;5076749;28;20569;-78
2022/05/13 03:45:46;;;;;;;10.57;9.57;;;16.40;99.90;;;;;;5080870;28;20572;-78
2022/05/13 03:48:13;;;;;;;11.60;10.50;;;16.40;99.90;;;;;;5080620;28;20208;-79
2022/05/13 03:50:43;;;;;;;10.73;9.63;;;16.40;99.90;;;;;;5080009;28;20198;-78
2022/05/13 03:53:10;;;;;;;10.87;9.83;;;16.40;99.90;;;;;;5080728;28;20210;-78
2022/05/13 03:55:38;;;;;;;10.90;9.90;;;16.40;99.90;;;;;;5067554;28;20292;-78
2022/05/13 03:58:05;;;;;;;11.23;10.23;;;16.40;99.90;;;;;;5082876;28;20197;-79
2022/05/13 04:00:33;;;;;;;10.67;9.67;;;16.40;99.90;;;;;;5083021;28;20198;-79
2022/05/13 04:03:00;;;;;;;10.07;9.17;;;16.40;99.90;;;;;;5082137;28;20244;-78
2022/05/13 04:11:03;;;;;;;10.47;9.47;;;16.50;99.90;;;;;;5080909;28;20201;-78
2022/05/13 04:16:15;;;;;;;10.17;9.20;;;16.40;99.90;;;;;;5083549;28;20597;-78
2022/05/13 04:18:44;;;;;;;11.07;9.97;;;16.40;99.90;;;;;;5084562;28;20194;-78
2022/05/13 04:21:13;;;;;;;10.60;9.50;;;16.40;99.90;;;;;;5084532;28;20194;-79
2022/05/13 04:23:43;;;;;;;9.00;8.10;;;16.40;99.90;;;;;;5078804;28;20190;-78
2022/05/13 04:26:13;;;;;;;10.83;9.83;;;16.40;99.90;;;;;;5086144;28;20759;-82
2022/05/13 04:28:41;;;;;;;10.90;9.70;;;16.50;99.90;;;;;;5077480;28;20278;-79
2022/05/13 04:31:08;;;;;;;10.23;9.33;;;16.50;99.90;;;;;;5086282;28;20272;-78
2022/05/13 04:33:35;;;;;;;11.07;10.07;;;16.50;99.90;;;;;;5082931;28;20218;-81
2022/05/13 04:36:02;;;;;;;10.83;9.73;;;16.50;99.90;;;;;;5090371;28;20211;-78
2022/05/13 04:38:29;;;;;;;10.93;9.83;;;16.60;99.90;;;;;;5084954;28;20571;-78
2022/05/13 04:40:56;;;;;;;9.90;9.00;;;16.60;99.90;;;;;;5078272;28;20194;-80
2022/05/13 04:43:23;;;;;;;10.20;9.20;;;16.60;99.90;;;;;;5089686;28;20215;-81
2022/05/13 04:45:51;;;;;;;11.43;10.23;;;16.60;99.90;;;;;;5083609;28;20222;-81
2022/05/13 04:48:17;;;;;;;11.10;10.00;;;16.70;99.90;;;;;;5089347;28;20288;-79
2022/05/13 04:50:49;;;;;;;12.80;11.77;;;16.70;99.90;;;;;;5082394;28;20778;-81
2022/05/13 04:53:19;;;;;;;12.00;11.00;;;16.80;99.90;;;;;;5090133;28;20197;-80
2022/05/13 04:55:46;;;;;;;10.17;9.27;;;16.90;99.90;;;;;;5082350;28;20260;-81
2022/05/13 04:58:13;;;;;;;9.17;8.37;;;17.00;99.90;;;;;;5083689;28;20197;-81
2022/05/13 05:00:42;;;;;;;14.30;13.20;;;17.00;99.90;;;;;;5088580;28;20282;-81
2022/05/13 05:03:09;;;;;;;14.00;12.83;;;17.10;99.90;;;;;;5083574;28;20186;-83
2022/05/13 05:05:36;;;;;;;13.97;12.97;;;17.10;99.90;;;;;;5076421;28;20214;-81
2022/05/13 05:08:04;;;;;;;16.20;15.00;;;17.00;99.90;;;;;;5084130;28;20569;-80
2022/05/13 05:10:31;;;;;;;14.93;13.77;;;17.10;99.90;;;;;;5091360;28;20268;-79
2022/05/13 05:12:59;;;;;;;17.00;15.67;;;17.10;99.90;;;;;;5084227;28;20574;-78
2022/05/13 05:15:27;;;;;;;17.17;15.87;;;17.00;99.90;;;;;;5084652;28;20636;-79
2022/05/13 05:17:56;;;;;;;15.60;14.30;;;17.10;99.90;;;;;;5084213;28;20187;-79
2022/05/13 05:20:23;;;;;;;15.83;14.63;;;17.10;99.90;;;;;;5084595;28;20202;-79
2022/05/13 05:22:50;;;;;;;13.37;12.37;;;17.10;99.90;;;;;;5088594;28;20204;-80
2022/05/13 05:25:19;;;;;;;15.63;14.53;;;17.10;99.90;;;;;;5083752;28;20220;-81
2022/05/13 05:27:46;;;;;;;14.00;12.80;;;17.10;99.90;;;;;;5082204;28;20202;-79
2022/05/13 05:30:14;;;;;;;14.97;13.87;;;17.00;99.90;;;;;;5075624;28;20201;-80
2022/05/13 05:32:42;;;;;;;14.30;13.10;;;17.10;99.90;;;;;;5072782;28;20212;-81
2022/05/13 05:35:15;;;;;;;15.10;13.80;;;17.20;99.90;;;;;;5076687;28;20214;-80
2022/05/13 05:37:42;;;;;;;15.57;14.47;;;17.20;99.90;;;;;;5072780;28;20284;-78
2022/05/13 05:40:10;;;;;;;15.80;14.60;;;17.20;99.90;;;;;;5085197;28;20190;-81
2022/05/13 05:42:37;;;;;;;16.77;15.53;;;17.20;99.90;;;;;;5080588;28;20193;-81
2022/05/13 05:45:06;;;;;;;16.13;14.83;;;17.20;99.90;;;;;;5087385;28;20219;-81
2022/05/13 05:47:32;;;;;;;15.53;14.30;;;17.20;99.90;;;;;;5086359;28;20590;-80
2022/05/13 05:50:00;;;;;;;14.97;13.67;;;17.10;99.90;;;;;;5088162;28;20224;-81
2022/05/13 05:52:28;;;;;;;14.37;13.23;;;17.00;99.90;;;;;;5084716;28;20202;-80
2022/05/13 05:57:39;;;;;;;12.80;11.70;;;16.90;99.90;;;;;;5086717;28;20957;-80
2022/05/13 06:00:10;;;;;;;12.27;11.27;;;16.90;99.90;;;;;;5086196;28;20190;-80
2022/05/13 06:02:37;;;;;;;12.10;11.10;;;16.90;99.90;;;;;;5085756;28;20284;-80
2022/05/13 06:05:04;;;;;;;11.60;10.70;;;16.90;99.90;;;;;;5078145;28;20251;-80
2022/05/13 06:07:32;;;;;;;13.00;11.90;;;17.00;99.90;;;;;;5075266;28;20200;-79
2022/05/13 06:09:59;;;;;;;12.60;11.60;;;17.00;99.90;;;;;;5082614;28;20194;-80
2022/05/13 06:12:26;;;;;;;12.40;11.50;;;17.00;99.90;;;;;;5075450;28;20284;-79
2022/05/13 06:14:53;;;;;;;13.70;12.57;;;16.90;99.90;;;;;;5078898;28;20292;-79
2022/05/13 06:17:20;;;;;;;11.93;11.07;;;16.90;99.90;;;;;;5074728;28;20247;-79
2022/05/13 06:19:47;;;;;;;14.37;13.27;;;16.80;99.90;;;;;;5078791;28;20193;-81
2022/05/13 06:22:15;;;;;;;15.07;13.97;;;16.80;99.90;;;;;;5074430;28;20641;-81
2022/05/13 06:24:43;;;;;;;14.03;13.03;;;16.80;99.90;;;;;;5074401;28;20298;-83
2022/05/13 06:27:10;;;;;;;14.43;13.43;;;16.80;99.90;;;;;;5075804;28;20233;-82
2022/05/13 06:29:37;;;;;;;14.73;13.63;;;16.90;99.90;;;;;;5075890;28;20274;-82
2022/05/13 06:32:05;;;;;;;13.57;12.57;;;17.00;99.90;;;;;;5075461;28;20477;-82
2022/05/13 06:34:32;;;;;;;12.70;11.80;;;17.00;99.90;;;;;;5075484;28;20216;-81
2022/05/13 06:36:59;;;;;;;15.67;14.43;;;17.10;99.90;;;;;;5073124;28;20616;-82
2022/05/13 06:39:26;;;;;;;15.63;14.23;;;17.10;99.90;;;;;;5076925;28;20197;-82
2022/05/13 06:41:54;;;;;;;16.87;15.47;;;17.00;99.90;;;;;;5074195;28;20298;-82
2022/05/13 06:44:21;;;;;;;15.93;14.80;;;17.00;99.90;;;;;;5071884;28;20230;-82
2022/05/13 06:46:49;;;;;;;14.87;13.80;;;17.00;99.90;;;;;;5075283;28;20588;-81
2022/05/13 06:49:16;;;;;;;13.90;12.80;;;16.90;99.90;;;;;;5072165;28;20202;-81
2022/05/13 06:51:43;;;;;;;15.10;13.67;;;16.90;99.90;;;;;;5072663;28;20664;-81
2022/05/13 06:54:12;;;;;;;13.97;12.87;;;16.80;99.90;;;;;;5076344;28;20222;-81
2022/05/13 06:56:41;;;;;;;14.57;13.37;;;16.80;99.90;;;;;;5074591;28;20198;-83
2022/05/13 06:59:09;;;;;;;14.73;13.50;;;16.70;99.90;;;;;;5074224;28;20759;-81
2022/05/13 07:01:37;;;;;;;16.03;14.73;;;16.70;99.90;;;;;;5071418;28;20190;-79
2022/05/13 07:04:05;;;;;;;11.87;10.80;;;16.60;99.90;;;;;;5074994;28;20297;-81
2022/05/13 07:06:32;;;;;;;14.73;13.63;;;16.40;99.90;;;;;;5076523;28;20262;-81
2022/05/13 07:08:59;;;;;;;13.70;12.60;;;16.40;99.90;;;;;;5075728;28;20667;-81
2022/05/13 07:11:27;;;;;;;14.33;13.23;;;16.30;99.90;;;;;;5076283;28;20197;-81
2022/05/13 07:13:54;;;;;;;13.23;12.33;;;16.40;99.90;;;;;;5073656;28;20271;-81
2022/05/13 07:16:22;;;;;;;12.83;11.83;;;16.50;99.90;;;;;;5075203;28;20189;-81
2022/05/13 07:18:50;;;;;;;12.60;11.60;;;16.60;99.90;;;;;;5072684;28;20198;-80
2022/05/13 07:21:17;;;;;;;14.60;13.50;;;16.60;99.90;;;;;;5075447;28;20203;-80
2022/05/13 07:23:44;;;;;;;11.93;11.13;;;16.70;99.90;;;;;;5073365;28;20254;-80
2022/05/13 07:26:12;;;;;;;11.57;10.67;;;16.80;99.90;;;;;;5078591;28;20248;-81
2022/05/13 07:28:39;;;;;;;9.77;8.90;;;16.80;99.90;;;;;;5077185;28;20211;-81
2022/05/13 07:31:07;;;;;;;10.00;9.20;;;16.80;99.90;;;;;;5081099;28;20222;-80
2022/05/13 07:33:36;;;;;;;10.47;9.57;;;16.90;99.90;;;;;;5082272;28;20204;-81
2022/05/13 07:36:04;;;;;;;10.67;9.33;;;17.00;99.90;;;;;;5079726;28;20300;-80
2022/05/13 07:38:31;;;;;;;10.17;9.13;;;17.00;99.90;;;;;;5083010;28;20226;-81
2022/05/13 07:41:16;;;;;;;13.63;12.63;;;16.90;99.90;;;;;;5080267;28;20192;-79
2022/05/13 07:43:43;;;;;;;13.40;12.37;;;17.00;99.90;;;;;;5069615;28;20188;-80
2022/05/13 07:46:10;;;;;;;14.30;13.30;;;17.00;99.90;;;;;;5077288;28;20228;-80
2022/05/13 07:48:40;;;;;;;13.60;12.50;;;17.00;99.90;;;;;;5064394;28;20201;-82
2022/05/13 07:51:08;;;;;;;13.47;12.17;;;17.00;99.90;;;;;;5072263;28;20197;-80
2022/05/13 07:53:35;;;;;;;12.57;11.40;;;16.90;99.90;;;;;;5080367;28;20222;-81
2022/05/13 07:56:02;;;;;;;12.90;11.87;;;16.90;99.90;;;;;;5078821;28;20218;-79
2022/05/13 07:58:30;;;;;;;12.60;11.70;;;16.90;99.90;;;;;;5078621;28;20195;-81
2022/05/13 08:00:58;;;;;;;12.57;11.53;;;16.90;99.90;;;;;;5064100;28;20574;-82
2022/05/13 08:03:26;;;;;;;13.07;11.87;;;16.90;99.90;;;;;;5079392;28;20205;-81
2022/05/13 08:06:02;;;;;;;15.43;13.93;;;17.00;99.90;;;;;;5084653;28;20226;-80
2022/05/13 08:08:32;;;;;;;14.53;13.37;;;17.00;99.90;;;;;;5081788;28;20193;-81
2022/05/13 08:11:04;;;;;;;14.33;13.03;;;17.10;99.90;;;;;;5073267;28;20197;-81
2022/05/13 08:13:34;;;;;;;13.80;12.80;;;16.90;99.90;;;;;;5082970;28;20204;-81
2022/05/13 08:16:02;;;;;;;12.67;11.77;;;16.90;99.90;;;;;;5079113;28;20279;-80
2022/05/13 08:18:29;;;;;;;11.13;10.23;;;16.70;99.90;;;;;;5076457;28;20206;-81
2022/05/13 08:20:58;;;;;;;11.47;8.40;;;16.70;99.90;;;;;;5077266;28;20198;-79
2022/05/13 08:23:25;;;;;;;8.37;7.37;;;16.70;99.90;;;;;;5077823;28;20240;-78
2022/05/13 08:25:52;;;;;;;7.47;6.50;;;16.70;99.90;;;;;;5076558;28;20250;-79
2022/05/13 08:28:22;;;;;;;6.60;5.90;;;16.70;99.90;;;;;;5082103;28;20205;-79
2022/05/13 08:30:51;;;;;;;11.07;10.17;;;16.60;99.90;;;;;;5079322;28;20201;-80
2022/05/13 08:33:18;;;;;;;10.20;9.30;;;16.60;99.90;;;;;;5082375;28;20198;-78
2022/05/13 08:35:47;;;;;;;10.10;9.30;;;16.60;99.90;;;;;;5079700;28;20709;-81
2022/05/13 08:38:17;;;;;;;11.93;10.93;;;16.70;99.90;;;;;;5081388;28;20211;-81
2022/05/13 08:41:02;;;;;;;12.03;11.10;;;16.80;99.90;;;;;;5069522;28;20194;-81
2022/05/13 08:43:35;;;;;;;12.27;11.27;;;16.80;99.90;;;;;;5076251;28;20280;-82
2022/05/13 08:46:10;;;;;;;9.13;8.27;;;16.90;99.90;;;;;;5076725;28;20212;-81
2022/05/13 08:48:47;;;;;;;11.70;10.90;;;17.00;99.90;;;;;;5078467;28;20197;-79
2022/05/13 08:51:18;;;;;;;10.80;10.00;;;17.10;99.90;;;;;;5079683;28;20198;-79
2022/05/13 08:53:53;;;;;;;10.67;9.73;;;17.20;99.90;;;;;;5083234;28;20273;-79
2022/05/13 08:56:26;;;;;;;13.23;12.23;;;17.30;99.90;;;;;;5074042;28;20205;-81
2022/05/13 08:58:57;;;;;;;13.63;12.63;;;17.30;99.90;;;;;;5083500;28;20201;-81
2022/05/13 09:01:29;;;;;;;14.30;13.40;;;17.30;99.90;;;;;;5070779;28;20195;-81
2022/05/13 09:04:02;;;;;;;14.13;13.13;;;17.20;99.90;;;;;;5070703;28;20218;-79
2022/05/13 09:06:36;;;;;;;13.50;12.60;;;17.20;99.90;;;;;;5087550;28;20209;-80
2022/05/13 09:09:07;;;;;;;12.00;11.03;;;17.30;99.90;;;;;;5082972;28;20195;-79
2022/05/13 09:11:40;;;;;;;8.87;8.00;;;17.20;99.90;;;;;;5077669;28;20189;-80
2022/05/13 09:14:15;;;;;;;7.63;6.87;;;17.30;99.90;;;;;;5078360;28;20211;-79
2022/05/13 09:16:54;;;;;;;8.03;7.33;;;17.40;99.90;;;;;;5087551;28;20193;-81
2022/05/13 09:19:31;;;;;;;10.83;9.77;;;17.50;99.90;;;;;;5083242;28;20195;-81
2022/05/13 09:21:58;;;;;;;13.83;12.83;;;17.60;99.90;;;;;;5077497;28;20278;-82
2022/05/13 09:24:26;;;;;;;12.90;12.10;;;17.70;99.90;;;;;;5083428;28;20257;-81
2022/05/13 09:26:54;;;;;;;13.43;12.50;;;17.70;99.90;;;;;;5077031;28;20309;-81
2022/05/13 09:29:21;;;;;;;13.10;12.03;;;17.70;99.90;;;;;;5083681;28;20199;-81
2022/05/13 09:32:00;;;;;;;13.10;12.17;;;17.60;99.90;;;;;;5093448;28;20202;-81
2022/05/13 09:34:34;;;;;;;12.80;11.63;;;17.60;99.90;;;;;;5094738;28;20229;-81
2022/05/13 09:37:07;;;;;;;10.77;9.67;;;17.60;99.90;;;;;;5095057;28;20187;-80
2022/05/13 09:39:38;;;;;;;8.70;7.97;;;17.80;99.90;;;;;;5086732;28;20678;-81
2022/05/13 09:42:22;;;;;;;11.83;11.03;;;18.10;99.90;;;;;;5081844;28;20195;-80
2022/05/13 09:44:51;;;;;;;10.80;10.00;;;18.40;99.90;;;;;;5079529;28;20663;-83
2022/05/13 09:47:27;;;;;;;5.87;5.37;;;18.60;99.90;;;;;;5079065;28;20631;-83
2022/05/13 09:49:55;;;;;;;9.80;9.10;;;18.80;99.90;;;;;;5079883;28;20199;-82
2022/05/13 09:52:30;;;;;;;6.07;4.80;;;19.10;99.90;;;;;;5083663;28;20209;-81
2022/05/13 09:55:12;;;;;;;5.10;4.67;;;19.10;99.90;;;;;;5079887;28;20220;-83
2022/05/13 09:57:40;;;;;;;5.93;4.50;;;19.10;99.90;;;;;;5076885;28;20204;-83
2022/05/13 10:00:15;;;;;;;7.80;4.87;;;19.10;99.90;;;;;;5080871;28;20228;-84
2022/05/13 10:02:44;;;;;;;5.30;4.47;;;19.00;99.90;;;;;;5072806;28;20270;-83
2022/05/13 10:05:15;;;;;;;7.23;4.43;;;19.10;99.90;;;;;;5072448;28;20234;-85
2022/05/13 10:07:56;;;;;;;5.43;4.40;;;19.30;99.90;;;;;;5082204;28;20262;-84
2022/05/13 10:16:02;;;;;;;4.40;4.00;;;20.10;99.90;;;;;;5083536;28;20206;-84
2022/05/13 10:18:32;;;;;;;8.10;4.40;;;20.50;99.90;;;;;;5080006;28;20199;-84
2022/05/13 10:21:02;;;;;;;5.23;4.43;;;20.60;99.90;;;;;;5073124;28;20199;-84
2022/05/13 10:23:34;;;;;;;5.80;4.37;;;20.90;99.90;;;;;;5099458;28;20221;-82
2022/05/13 10:26:06;;;;;;;9.73;8.73;;;21.00;99.90;;;;;;5077568;28;20222;-84
2022/05/13 10:28:37;;;;;;;7.93;4.03;;;20.90;99.90;;;;;;5082917;28;20245;-83
2022/05/13 10:31:10;;;;;;;4.47;3.63;;;21.00;99.90;;;;;;5087129;28;20251;-81
2022/05/13 10:33:42;;;;;;;5.17;3.63;;;21.00;99.90;;;;;;5085804;28;20199;-84
2022/05/13 10:36:13;;;;;;;5.60;4.00;;;21.10;99.90;;;;;;5071033;28;20691;-84
2022/05/13 10:38:44;;;;;;;4.90;3.60;;;21.30;99.90;;;;;;5072531;28;20198;-82
2022/05/13 10:41:19;;;;;;;4.07;3.67;;;21.60;99.90;;;;;;5077146;28;20221;-84
2022/05/13 10:43:52;;;;;;;4.57;3.77;;;21.90;99.90;;;;;;5074442;28;20722;-85
2022/05/13 10:46:25;;;;;;;4.47;3.80;;;22.00;99.90;;;;;;5068333;28;20234;-84
2022/05/13 10:48:55;;;;;;;6.70;4.00;;;22.00;99.90;;;;;;5080851;28;20204;-83
2022/05/13 10:51:29;;;;;;;4.47;3.90;;;21.80;99.90;;;;;;5084960;28;20659;-84
2022/05/13 10:54:33;;;;;;;4.60;3.70;;;21.50;99.90;;;;;;5081253;28;20630;-83
2022/05/13 10:57:12;;;;;;;5.87;3.93;;;21.10;99.90;;;;;;5070843;28;20206;-83
2022/05/13 10:59:50;;;;;;;5.13;3.83;;;20.90;99.90;;;;;;5072207;28;20655;-81
2022/05/13 11:02:41;;;;;;;7.33;4.10;;;20.70;99.90;;;;;;5075303;28;20206;-83
2022/05/13 11:05:13;;;;;;;6.33;4.50;;;20.40;99.90;;;;;;5079718;28;20321;-84
2022/05/13 11:07:48;;;;;;;4.60;4.00;;;20.20;99.90;;;;;;5077447;28;20587;-83
2022/05/13 11:10:23;;;;;;;5.03;4.63;;;20.10;99.90;;;;;;5077289;28;20206;-84
2022/05/13 11:12:59;;;;;;;4.43;3.60;;;20.20;99.90;;;;;;5083663;28;20536;-83
2022/05/13 11:15:33;;;;;;;5.30;4.10;;;20.40;99.90;;;;;;5086734;28;20689;-83
2022/05/13 11:18:09;;;;;;;4.73;3.67;;;20.70;99.90;;;;;;5081015;28;20190;-83
2022/05/13 11:20:44;;;;;;;6.00;3.83;;;20.70;99.90;;;;;;5075238;28;20743;-83
2022/05/13 11:23:21;;;;;;;6.17;3.90;;;20.60;99.90;;;;;;5076211;28;20304;-85
2022/05/13 11:26:10;;;;;;;8.83;5.23;;;20.40;99.90;;;;;;5083443;28;20223;-84
2022/05/13 11:28:55;;;;;;;6.83;6.13;;;20.40;99.90;;;;;;5069210;28;20311;-84
2022/05/13 11:31:40;;;;;;;6.50;5.87;;;20.40;99.90;;;;;;5083012;28;20203;-83
2022/05/13 11:34:19;;;;;;;6.80;6.20;;;20.60;99.90;;;;;;5079226;28;20222;-84
2022/05/13 11:36:52;;;;;;;6.47;5.97;;;20.70;99.90;;;;;;5073247;28;20226;-84
2022/05/13 11:39:44;;;;;;;6.17;5.50;;;20.90;99.90;;;;;;5080312;28;20726;-83
2022/05/13 11:42:35;;;;;;;5.60;4.20;;;21.00;99.90;;;;;;5079076;28;20201;-85
2022/05/13 11:45:26;;;;;;;7.07;3.60;;;21.30;99.90;;;;;;5078134;28;20210;-82
2022/05/13 11:47:59;;;;;;;4.47;3.60;;;21.60;99.90;;;;;;5074149;28;20665;-82
2022/05/13 11:50:28;;;;;;;6.80;3.77;;;21.70;99.90;;;;;;5078485;28;20655;-84
2022/05/13 11:52:56;;;;;;;8.27;4.07;;;21.80;99.90;;;;;;5080187;28;20206;-84
2022/05/13 11:55:45;;;;;;;3.93;3.37;;;21.90;99.90;;;;;;5079152;28;20218;-83
2022/05/13 11:58:48;;;;;;;6.47;3.33;;;21.80;99.90;;;;;;5085141;28;20198;-83
2022/05/13 12:01:18;;;;;;;3.70;3.40;;;21.70;99.90;;;;;;5077752;28;20193;-83
2022/05/13 12:04:05;;;;;;;4.20;3.50;;;21.60;99.90;;;;;;5084407;28;20220;-83
2022/05/13 12:06:57;;;;;;;5.27;3.00;;;21.70;99.90;;;;;;5082672;28;20225;-82
2022/05/13 12:09:29;;;;;;;3.73;3.20;;;21.80;99.90;;;;;;5076765;28;20195;-83
2022/05/13 12:12:07;;;;;;;6.30;3.60;;;21.70;99.90;;;;;;5084200;28;20190;-81
2022/05/13 12:14:48;;;;;;;4.60;3.63;;;21.70;99.90;;;;;;5075490;28;20743;-84
2022/05/13 12:17:21;;;;;;;5.20;3.50;;;21.60;99.90;;;;;;5083956;28;20634;-83
2022/05/13 12:20:00;;;;;;;4.83;3.50;;;21.70;99.90;;;;;;5079908;28;20224;-84
2022/05/13 12:22:42;;;;;;;4.93;3.33;;;21.80;99.90;;;;;;5080791;28;20294;-82
2022/05/13 12:25:11;;;;;;;5.07;3.20;;;21.90;99.90;;;;;;5075110;28;20214;-81
2022/05/13 12:27:44;;;;;;;4.97;3.40;;;21.80;99.90;;;;;;5077103;28;20220;-83
2022/05/13 12:30:30;;;;;;;4.83;3.10;;;21.80;99.90;;;;;;5071733;28;20206;-82
2022/05/13 12:32:59;;;;;;;5.80;3.10;;;21.90;99.90;;;;;;5073429;28;20182;-83
2022/05/13 12:38:23;;;;;;;6.20;3.23;;;22.60;99.90;;;;;;5084707;28;20182;-83
2022/05/13 12:41:09;;;;;;;6.03;3.33;;;22.80;99.90;;;;;;5080999;28;20190;-83
2022/05/13 12:43:54;;;;;;;4.10;3.70;;;22.80;99.90;;;;;;5068988;28;20650;-81
2022/05/13 12:46:42;;;;;;;4.97;3.33;;;23.10;99.90;;;;;;5075980;28;20206;-80
2022/05/13 12:49:12;;;;;;;4.80;3.13;;;23.20;99.90;;;;;;5072990;28;20683;-83
2022/05/13 12:51:47;;;;;;;4.20;3.13;;;23.40;99.90;;;;;;5073013;28;20198;-80
2022/05/13 12:54:18;;;;;;;3.90;3.20;;;23.40;99.90;;;;;;5077333;28;20221;-83
2022/05/13 12:56:49;;;;;;;6.40;3.47;;;23.20;99.90;;;;;;5087573;28;20216;-83
2022/05/13 12:59:23;;;;;;;6.23;3.63;;;23.10;99.90;;;;;;5086375;28;20193;-83
2022/05/13 13:01:54;;;;;;;6.50;3.77;;;23.00;99.90;;;;;;5080649;28;20194;-83
2022/05/13 13:04:25;;;;;;;4.60;3.47;;;22.90;99.90;;;;;;5079921;28;20771;-85
2022/05/13 13:06:54;;;;;;;5.13;3.40;;;22.80;99.90;;;;;;5084230;28;20243;-83
2022/05/13 13:09:30;;;;;;;5.10;3.67;;;22.80;99.90;;;;;;5073271;28;20226;-83
2022/05/13 13:12:02;;;;;;;7.73;6.67;;;22.80;99.90;;;;;;5082183;28;20236;-82
2022/05/13 13:14:41;;;;;;;6.77;4.97;;;22.70;99.90;;;;;;5084733;28;20714;-82
2022/05/13 13:17:19;;;;;;;6.37;3.30;;;22.60;99.90;;;;;;5082276;28;20190;-83
2022/05/13 13:19:48;;;;;;;6.10;5.53;;;22.50;99.90;;;;;;5080390;28;20202;-83
2022/05/13 13:22:20;;;;;;;4.40;3.97;;;22.40;99.90;;;;;;5084843;28;20206;-83